Time;durP1;ratioP1;P1;durP2;ratioP2;P2;SDS_P1;SDS_P2;PMS_P1;PMS_P2;Temp;Humidity;BMP_temperature;BMP_pressure;BME280_temperature;BME280_humidity;BME280_pressure;Samples;Min_cycle;Max_cycle;Signal;HPM_P1;HPM_P2
2023/07/30 00:00:07;;;;;;;9.27;6.07;;;;;;;16.47;84.72;99726.06;10118352;29;20067;-76
2023/07/30 00:05:13;;;;;;;8.20;6.97;;;;;;;16.14;86.56;99724.34;10110400;29;20461;-75
2023/07/30 00:10:16;;;;;;;10.98;7.85;;;;;;;16.36;85.85;99719.19;10120360;29;21179;-76
2023/07/30 00:15:21;;;;;;;10.50;8.77;;;;;;;16.35;85.87;99715.63;10112314;29;20044;-75
2023/07/30 00:20:24;;;;;;;10.55;9.02;;;;;;;16.45;85.27;99719.97;10117771;29;20064;-75
2023/07/30 00:25:29;;;;;;;11.98;9.95;;;;;;;16.17;86.76;99725.00;10110236;29;20468;-75
2023/07/30 00:30:33;;;;;;;14.63;9.13;;;;;;;16.36;85.03;99722.72;10120756;29;20059;-75
2023/07/30 00:35:36;;;;;;;11.98;9.55;;;;;;;16.42;84.44;99728.47;10126384;29;20151;-75
2023/07/30 00:40:42;;;;;;;12.50;8.55;;;;;;;16.29;84.46;99743.44;10107263;29;20506;-76
2023/07/30 00:45:47;;;;;;;10.82;9.63;;;;;;;16.23;84.26;99735.97;10110708;29;20401;-75
2023/07/30 00:50:50;;;;;;;12.13;9.38;;;;;;;16.11;84.40;99737.41;10114006;29;20044;-75
2023/07/30 00:55:53;;;;;;;13.35;9.15;;;;;;;15.97;84.48;99735.44;10114655;29;20045;-75
2023/07/30 01:00:57;;;;;;;13.05;9.07;;;;;;;15.96;84.31;99742.69;10107951;29;20066;-75
2023/07/30 01:06:00;;;;;;;12.23;9.13;;;;;;;15.65;84.96;99738.06;10111602;29;20064;-75
2023/07/30 01:11:06;;;;;;;14.23;8.95;;;;;;;15.99;83.59;99750.50;10113306;29;20059;-75
2023/07/30 01:16:10;;;;;;;12.45;8.45;;;;;;;15.78;83.40;99748.34;10109457;29;20596;-75
2023/07/30 01:21:15;;;;;;;13.75;9.82;;;;;;;15.91;83.46;99759.47;10114606;29;20547;-75
2023/07/30 01:26:23;;;;;;;18.77;10.13;;;;;;;15.73;84.61;99768.84;10114742;29;20048;-76
2023/07/30 01:31:27;;;;;;;14.60;10.63;;;;;;;15.80;84.84;99773.41;10103672;29;20056;-76
2023/07/30 01:36:33;;;;;;;13.80;9.98;;;;;;;15.80;84.58;99772.56;10105372;29;20514;-76
2023/07/30 01:41:36;;;;;;;16.48;10.25;;;;;;;15.72;84.41;99775.28;10109634;29;20056;-75
2023/07/30 01:46:39;;;;;;;14.57;9.25;;;;;;;15.44;85.71;99779.22;10104825;29;21238;-76
2023/07/30 01:51:44;;;;;;;11.25;8.20;;;;;;;15.47;85.08;99781.56;10110504;29;20063;-75
2023/07/30 01:56:46;;;;;;;10.60;7.93;;;;;;;15.48;84.23;99779.72;10108119;29;20067;-75
2023/07/30 02:01:49;;;;;;;13.05;7.65;;;;;;;15.38;84.60;99781.75;10119869;29;20044;-75
2023/07/30 02:06:53;;;;;;;11.80;6.43;;;;;;;15.34;83.94;99788.50;10120052;29;20427;-75
2023/07/30 02:11:56;;;;;;;9.85;6.63;;;;;;;15.27;84.24;99785.59;10118483;29;20048;-75
2023/07/30 02:16:59;;;;;;;12.73;7.07;;;;;;;15.35;84.52;99784.78;10122314;29;20060;-75
2023/07/30 02:22:04;;;;;;;14.93;9.77;;;;;;;15.39;85.34;99783.44;10114766;29;20074;-75
2023/07/30 02:27:08;;;;;;;14.77;11.15;;;;;;;15.40;85.75;99787.84;10125347;29;21233;-75
2023/07/30 02:32:11;;;;;;;16.83;10.63;;;;;;;15.37;86.20;99783.59;10126997;29;20056;-75
2023/07/30 02:37:15;;;;;;;15.82;9.77;;;;;;;15.32;87.07;99782.41;10122279;29;21247;-75
2023/07/30 02:42:18;;;;;;;14.43;9.98;;;;;;;15.15;88.13;99782.41;10116535;29;20045;-75
2023/07/30 02:47:21;;;;;;;19.10;11.10;;;;;;;15.14;88.70;99775.31;10117450;29;20052;-75
2023/07/30 02:52:25;;;;;;;18.90;12.75;;;;;;;15.19;88.95;99791.00;10110824;29;20056;-75
2023/07/30 02:57:28;;;;;;;18.77;12.35;;;;;;;15.32;87.12;99785.09;10120685;29;20079;-75
2023/07/30 03:02:31;;;;;;;20.63;12.57;;;;;;;15.23;86.99;99792.38;10122885;29;21182;-75
2023/07/30 03:07:36;;;;;;;18.20;12.77;;;;;;;15.22;86.79;99793.38;10119231;29;20150;-76
2023/07/30 03:12:39;;;;;;;22.92;12.55;;;;;;;15.19;87.27;99796.41;10115106;29;20052;-75
2023/07/30 03:17:42;;;;;;;21.42;12.57;;;;;;;15.17;87.61;99790.34;10117555;29;20052;-75
2023/07/30 03:22:46;;;;;;;17.88;11.40;;;;;;;14.97;87.74;99790.66;10116484;29;20099;-75
2023/07/30 03:27:49;;;;;;;18.75;10.10;;;;;;;14.86;86.63;99803.66;10119279;29;20056;-75
2023/07/30 03:32:53;;;;;;;13.18;8.18;;;;;;;15.05;84.75;99803.34;10118005;29;20098;-75
2023/07/30 03:37:57;;;;;;;14.60;7.00;;;;;;;14.90;83.52;99802.31;10112892;29;20047;-75
2023/07/30 03:43:00;;;;;;;9.88;5.93;;;;;;;14.72;82.84;99810.56;10115497;29;20056;-75
2023/07/30 03:48:04;;;;;;;12.55;6.22;;;;;;;14.80;81.20;99811.41;10110906;29;20103;-75
2023/07/30 03:53:09;;;;;;;10.80;4.70;;;;;;;14.58;81.40;99815.59;10114472;29;20083;-75
2023/07/30 03:58:12;;;;;;;11.10;5.28;;;;;;;14.90;80.10;99821.25;10116009;29;20436;-75
2023/07/30 04:03:15;;;;;;;6.93;4.60;;;;;;;14.67;80.19;99813.75;10119473;29;20055;-75
2023/07/30 04:08:19;;;;;;;11.05;5.63;;;;;;;14.58;81.05;99820.16;10111346;29;20071;-75
2023/07/30 04:13:22;;;;;;;8.27;4.28;;;;;;;14.55;81.28;99820.47;10112890;29;20070;-75
2023/07/30 04:18:25;;;;;;;8.73;4.88;;;;;;;14.81;79.84;99820.41;10115041;29;20509;-75
2023/07/30 04:23:29;;;;;;;8.43;3.15;;;;;;;14.42;80.52;99825.50;10108224;29;20044;-75
2023/07/30 04:28:32;;;;;;;10.30;5.20;;;;;;;14.49;80.50;99823.84;10109823;29;20082;-75
2023/07/30 04:33:35;;;;;;;8.60;4.47;;;;;;;14.60;80.11;99826.25;10111503;29;20052;-75
2023/07/30 04:38:40;;;;;;;12.90;4.30;;;;;;;14.38;80.14;99820.41;10113563;29;20044;-75
2023/07/30 04:43:43;;;;;;;11.85;4.93;;;;;;;14.54;78.93;99833.16;10117750;29;20052;-74
2023/07/30 04:48:47;;;;;;;7.57;4.32;;;;;;;14.61;78.32;99822.50;10113007;29;20067;-74
2023/07/30 04:53:54;;;;;;;9.43;4.50;;;;;;;14.52;77.78;99824.34;10110829;29;20052;-74
2023/07/30 04:58:57;;;;;;;10.40;3.80;;;;;;;14.79;77.10;99828.66;10118361;29;20071;-75
2023/07/30 05:04:00;;;;;;;10.00;3.70;;;;;;;14.72;77.03;99826.78;10115024;29;20077;-76
2023/07/30 05:09:05;;;;;;;11.20;3.25;;;;;;;14.74;76.92;99836.41;10116926;29;20052;-75
2023/07/30 05:14:08;;;;;;;14.07;2.90;;;;;;;14.95;74.68;99835.13;10113681;29;20428;-75
2023/07/30 05:19:10;;;;;;;5.70;2.70;;;;;;;14.90;74.43;99835.63;10112211;29;21251;-75
2023/07/30 05:24:15;;;;;;;10.30;4.32;;;;;;;15.14;74.98;99837.53;10108532;29;20060;-75
2023/07/30 05:29:17;;;;;;;12.07;4.07;;;;;;;14.98;75.72;99822.09;10111366;29;20060;-75
2023/07/30 05:34:20;;;;;;;10.75;4.50;;;;;;;14.82;76.29;99822.91;10104282;29;20052;-74
2023/07/30 05:39:24;;;;;;;7.20;3.25;;;;;;;14.73;76.53;99834.72;10112059;29;21316;-75
2023/07/30 05:44:27;;;;;;;7.45;3.40;;;;;;;14.83;76.95;99832.72;10111355;29;20055;-74
2023/07/30 05:49:31;;;;;;;7.03;3.92;;;;;;;14.70;76.67;99836.91;10125936;29;20044;-74
2023/07/30 05:54:35;;;;;;;12.07;3.45;;;;;;;14.48;77.34;99841.03;10127144;29;20048;-74
2023/07/30 05:59:38;;;;;;;9.30;3.50;;;;;;;15.07;76.23;99846.47;10127871;29;20051;-74
2023/07/30 06:04:41;;;;;;;8.15;3.05;;;;;;;14.69;76.17;99846.88;10123495;29;20052;-74
2023/07/30 06:09:46;;;;;;;9.23;3.10;;;;;;;15.02;75.18;99845.09;10120752;29;21545;-74
2023/07/30 06:14:48;;;;;;;8.80;3.63;;;;;;;15.00;75.84;99851.69;10123884;29;20543;-74
2023/07/30 06:19:51;;;;;;;11.02;4.78;;;;;;;14.97;75.96;99860.97;10119829;29;20071;-74
2023/07/30 06:24:55;;;;;;;13.70;6.03;;;;;;;15.64;74.02;99865.47;10109431;29;20045;-74
2023/07/30 06:29:58;;;;;;;15.23;9.00;;;;;;;15.53;73.66;99869.38;10122477;29;20283;-74
2023/07/30 06:35:02;;;;;;;13.10;9.57;;;;;;;15.35;73.42;99874.94;10115200;29;20075;-74
2023/07/30 06:40:08;;;;;;;14.70;9.80;;;;;;;15.85;71.82;99867.63;10109840;29;20412;-74
2023/07/30 06:45:11;;;;;;;17.30;11.25;;;;;;;15.36;74.01;99873.06;10113658;29;20048;-74
2023/07/30 06:50:14;;;;;;;18.63;11.63;;;;;;;15.68;73.30;99873.06;10116492;29;20613;-75
2023/07/30 06:55:20;;;;;;;15.40;10.52;;;;;;;15.50;73.82;99885.09;10119900;29;20392;-74
2023/07/30 07:00:23;;;;;;;15.98;10.80;;;;;;;15.91;71.87;99889.47;10115374;29;20049;-74
2023/07/30 07:05:26;;;;;;;19.08;11.43;;;;;;;15.18;73.82;99903.78;10119132;29;20539;-74
2023/07/30 07:10:30;;;;;;;22.80;13.82;;;;;;;15.53;73.48;99888.31;10118601;29;20153;-74
2023/07/30 07:15:33;;;;;;;20.40;12.25;;;;;;;15.74;72.45;99895.91;10120941;29;20524;-74
2023/07/30 07:20:36;;;;;;;24.40;14.07;;;;;;;16.71;69.64;99896.75;10112183;29;20186;-74
2023/07/30 07:25:41;;;;;;;26.02;14.02;;;;;;;16.34;70.00;99890.09;10110150;29;20389;-74
2023/07/30 07:30:44;;;;;;;20.02;13.38;;;;;;;16.77;69.01;99901.47;10119407;29;20583;-76
2023/07/30 07:35:47;;;;;;;22.27;13.68;;;;;;;16.69;69.68;99900.66;10109361;29;20052;-74
2023/07/30 07:40:51;;;;;;;19.00;14.60;;;;;;;16.32;71.49;99905.69;10123815;29;20200;-74
2023/07/30 07:45:54;;;;;;;18.92;13.07;;;;;;;16.88;68.76;99915.66;10119344;29;20105;-74
2023/07/30 07:50:57;;;;;;;25.02;14.68;;;;;;;17.20;67.48;99911.97;10116259;29;20139;-74
2023/07/30 07:56:01;;;;;;;24.38;14.93;;;;;;;16.62;68.69;99910.50;10113065;29;20087;-74
2023/07/30 08:01:04;;;;;;;17.30;13.50;;;;;;;16.38;68.87;99911.44;10116338;29;20081;-74
2023/07/30 08:06:07;;;;;;;21.27;14.18;;;;;;;16.61;68.39;99908.81;10113504;29;20052;-74
2023/07/30 08:11:11;;;;;;;25.55;17.65;;;;;;;16.28;69.47;99898.91;10109773;29;20601;-74
2023/07/30 08:16:14;;;;;;;27.45;16.05;;;;;;;16.19;70.06;99902.63;10112839;29;20051;-73
2023/07/30 08:21:20;;;;;;;32.70;20.63;;;;;;;16.22;69.46;99902.28;10112901;29;20052;-74
2023/07/30 08:26:24;;;;;;;31.25;19.88;;;;;;;16.43;69.82;99903.63;10131086;29;20071;-73
2023/07/30 08:31:27;;;;;;;33.35;22.23;;;;;;;16.19;71.07;99894.50;10108773;29;20071;-74
2023/07/30 08:36:29;;;;;;;35.88;23.83;;;;;;;16.39;69.79;99897.69;10106792;29;20048;-75
2023/07/30 08:41:34;;;;;;;34.90;24.10;;;;;;;16.20;70.50;99904.31;10115721;29;20525;-74
2023/07/30 08:46:37;;;;;;;34.53;21.45;;;;;;;15.89;72.07;99925.88;10107623;29;20060;-75
2023/07/30 08:51:42;;;;;;;25.45;14.30;;;;;;;15.55;73.24;99913.38;10119864;29;20060;-74
2023/07/30 08:56:46;;;;;;;35.15;23.08;;;;;;;15.76;73.14;99922.84;10114578;29;20705;-74
2023/07/30 09:01:52;;;;;;;38.17;25.73;;;;;;;15.96;73.63;99928.75;10116211;29;20074;-75
2023/07/30 09:06:55;;;;;;;37.25;26.58;;;;;;;15.49;75.23;99930.25;10114136;29;20703;-74
2023/07/30 09:12:00;;;;;;;40.92;24.25;;;;;;;15.75;74.28;99934.69;10120842;29;20064;-74
2023/07/30 09:17:03;;;;;;;38.95;23.52;;;;;;;15.68;74.60;99943.47;10116744;29;20059;-74
2023/07/30 09:22:07;;;;;;;43.65;23.52;;;;;;;15.59;75.49;99947.19;10114385;29;20048;-74
2023/07/30 09:27:12;;;;;;;37.92;22.88;;;;;;;15.82;75.31;99941.94;10109421;29;20736;-74
2023/07/30 09:32:14;;;;;;;42.22;24.35;;;;;;;15.83;74.50;99957.19;10112326;29;20048;-74
2023/07/30 09:37:18;;;;;;;31.88;19.73;;;;;;;15.75;73.91;99959.06;10117412;29;20147;-74
2023/07/30 09:42:27;;;;;;;34.33;19.73;;;;;;;15.74;74.55;99950.06;10115448;29;21126;-74
2023/07/30 09:47:31;;;;;;;41.92;21.48;;;;;;;15.66;74.80;99959.06;10115718;29;20052;-74
2023/07/30 09:52:34;;;;;;;31.50;18.38;;;;;;;16.02;73.69;99977.69;10114144;29;20062;-74
2023/07/30 09:57:39;;;;;;;26.33;14.13;;;;;;;16.75;70.29;99963.16;10116633;29;20725;-74
2023/07/30 10:02:46;;;;;;;25.88;15.60;;;;;;;16.23;71.40;99965.47;10108455;29;20129;-74
2023/07/30 10:07:54;;;;;;;22.55;12.20;;;;;;;16.63;71.06;99974.56;10109600;29;20076;-74
2023/07/30 10:13:01;;;;;;;26.80;15.50;;;;;;;16.31;71.71;99995.28;10106657;29;20057;-74
2023/07/30 10:18:04;;;;;;;32.05;16.02;;;;;;;17.16;69.39;99981.16;10109656;29;20072;-74
2023/07/30 10:23:07;;;;;;;24.40;16.05;;;;;;;18.23;64.63;99959.56;10119744;29;20076;-74
2023/07/30 10:28:27;;;;;;;23.70;16.92;;;;;;;17.87;65.49;99985.47;10131633;29;20052;-74
2023/07/30 10:33:46;;;;;;;25.95;16.50;;;;;;;18.06;65.54;99967.03;10119725;29;20410;-74
2023/07/30 10:38:48;;;;;;;26.05;14.73;;;;;;;18.47;64.48;99964.75;10119248;29;20427;-74
2023/07/30 10:43:54;;;;;;;23.15;13.95;;;;;;;18.09;64.74;99967.50;10122248;29;20079;-74
2023/07/30 10:48:57;;;;;;;23.95;15.20;;;;;;;18.71;64.02;99958.19;10118381;29;20084;-74
2023/07/30 10:54:00;;;;;;;17.05;12.23;;;;;;;19.16;61.96;99966.34;10116889;29;20072;-74
2023/07/30 10:59:05;;;;;;;15.98;9.45;;;;;;;19.26;60.73;99955.16;10117950;29;20057;-73
2023/07/30 11:04:10;;;;;;;16.02;10.52;;;;;;;19.14;59.62;99954.78;10118738;29;20071;-74
2023/07/30 11:09:20;;;;;;;19.98;9.15;;;;;;;19.50;59.61;99965.72;10117025;29;20547;-73
2023/07/30 11:14:27;;;;;;;12.60;10.15;;;;;;;19.71;58.99;99940.38;10110850;29;20044;-74
2023/07/30 11:19:31;;;;;;;17.58;10.27;;;;;;;20.05;57.95;99952.44;10105298;29;20052;-74
2023/07/30 11:24:34;;;;;;;14.77;9.07;;;;;;;19.62;58.27;99949.72;10112075;29;20048;-74
2023/07/30 11:29:38;;;;;;;17.00;8.68;;;;;;;19.88;57.46;99952.72;10104972;29;20044;-73
2023/07/30 11:34:43;;;;;;;14.93;8.35;;;;;;;19.71;57.54;99974.94;10118613;29;20769;-74
2023/07/30 11:39:46;;;;;;;10.55;7.03;;;;;;;20.69;55.52;99935.06;10115996;29;20051;-74
2023/07/30 11:44:51;;;;;;;10.70;7.28;;;;;;;20.11;55.40;99938.00;10110074;29;20052;-74
2023/07/30 11:49:57;;;;;;;10.25;5.68;;;;;;;20.22;53.98;99932.00;10118296;29;20047;-74
2023/07/30 11:55:03;;;;;;;10.68;6.55;;;;;;;20.64;52.88;99943.00;10117310;29;20125;-75
2023/07/30 12:00:09;;;;;;;11.75;5.70;;;;;;;20.46;53.60;99940.78;10113908;29;21196;-74
2023/07/30 12:05:17;;;;;;;10.40;5.32;;;;;;;20.09;52.80;99930.00;10114464;29;20052;-74
2023/07/30 12:10:20;;;;;;;5.95;4.22;;;;;;;20.03;53.84;99932.69;10117903;29;20263;-74
2023/07/30 12:15:24;;;;;;;5.80;3.35;;;;;;;19.31;52.44;99942.66;10103701;29;20428;-74
2023/07/30 12:20:28;;;;;;;4.85;2.95;;;;;;;19.07;53.63;99943.84;10105300;29;20051;-75
2023/07/30 12:25:31;;;;;;;9.05;3.70;;;;;;;19.84;53.67;99959.56;10111070;29;20067;-75
2023/07/30 12:30:36;;;;;;;12.95;3.50;;;;;;;20.67;52.09;99940.72;10118964;29;21159;-74
2023/07/30 12:35:39;;;;;;;2.85;2.30;;;;;;;20.23;51.54;99962.84;10118238;29;20542;-75
2023/07/30 12:40:42;;;;;;;7.00;3.05;;;;;;;20.41;51.66;99916.03;10113639;29;20048;-75
2023/07/30 12:45:46;;;;;;;5.72;2.47;;;;;;;21.61;49.97;99933.72;10120979;29;20413;-76
2023/07/30 12:50:49;;;;;;;5.45;2.60;;;;;;;20.89;51.60;99938.72;10111507;29;20084;-74
2023/07/30 12:55:52;;;;;;;8.15;2.70;;;;;;;22.15;48.61;99940.94;10112593;29;20090;-75
2023/07/30 13:00:56;;;;;;;6.00;2.15;;;;;;;20.52;50.46;99942.72;10117068;29;20049;-75
2023/07/30 13:05:59;;;;;;;4.93;2.10;;;;;;;19.83;52.23;99944.28;10119020;29;20053;-74
2023/07/30 13:11:02;;;;;;;6.18;2.33;;;;;;;19.45;53.63;99944.47;10106981;29;20059;-75
2023/07/30 13:16:06;;;;;;;3.70;1.98;;;;;;;20.14;53.48;99951.25;10113450;29;20068;-74
2023/07/30 13:21:09;;;;;;;2.72;2.10;;;;;;;19.38;54.33;99951.72;10108022;29;20063;-75
2023/07/30 13:26:12;;;;;;;4.68;1.65;;;;;;;19.26;54.51;99974.22;10115845;29;20083;-74
2023/07/30 13:31:17;;;;;;;7.07;2.33;;;;;;;19.00;54.46;99970.94;10111599;29;20060;-74
2023/07/30 13:36:20;;;;;;;7.13;2.35;;;;;;;18.77;56.09;99968.31;10116303;29;20048;-74
2023/07/30 13:41:23;;;;;;;7.75;2.10;;;;;;;18.18;58.20;99968.25;10113903;29;20139;-75
2023/07/30 13:46:27;;;;;;;9.82;2.05;;;;;;;17.96;58.92;99977.25;10114102;29;20167;-74
2023/07/30 13:51:32;;;;;;;4.05;1.50;;;;;;;17.55;60.49;100010.13;10117612;29;20060;-74
2023/07/30 13:56:35;;;;;;;6.93;2.28;;;;;;;17.03;65.17;100008.84;10116347;29;20051;-74
2023/07/30 14:01:39;;;;;;;4.88;1.95;;;;;;;16.72;72.37;99974.34;10125049;29;21300;-75
2023/07/30 14:06:43;;;;;;;6.68;1.58;;;;;;;17.20;69.36;99982.53;10123927;29;20913;-74
2023/07/30 14:11:46;;;;;;;3.00;1.60;;;;;;;17.14;66.08;99988.63;10121505;29;20427;-74
2023/07/30 14:16:51;;;;;;;5.50;1.45;;;;;;;16.85;62.04;99994.69;10117117;29;20056;-74
2023/07/30 14:21:57;;;;;;;3.13;1.00;;;;;;;17.34;59.92;99989.06;10116235;29;20531;-74
2023/07/30 14:27:00;;;;;;;2.83;0.85;;;;;;;18.23;56.74;99984.84;10136775;29;20102;-74
2023/07/30 14:32:04;;;;;;;2.90;1.10;;;;;;;18.62;56.07;99980.22;10125501;29;20562;-74
2023/07/30 14:37:08;;;;;;;4.05;0.90;;;;;;;19.88;53.67;99976.38;10129356;29;20056;-74
2023/07/30 14:42:12;;;;;;;2.55;1.05;;;;;;;20.32;52.31;99961.66;10118801;29;20063;-74
2023/07/30 14:47:16;;;;;;;4.25;1.35;;;;;;;20.08;53.54;99963.78;10125285;29;20052;-74
2023/07/30 14:52:19;;;;;;;4.82;1.30;;;;;;;19.80;54.89;99984.69;10116631;29;20104;-74
2023/07/30 14:57:22;;;;;;;3.50;1.27;;;;;;;20.29;53.80;99972.94;10115019;29;20436;-75
2023/07/30 15:02:26;;;;;;;6.38;0.95;;;;;;;20.00;55.08;99963.91;10124957;29;20184;-75
2023/07/30 15:07:29;;;;;;;5.07;1.13;;;;;;;20.66;54.01;99955.41;10122538;29;20056;-74
2023/07/30 15:12:32;;;;;;;3.75;1.08;;;;;;;21.21;52.67;99936.38;10114994;29;20052;-74
2023/07/30 15:17:36;;;;;;;4.53;0.65;;;;;;;20.96;50.71;99917.78;10119149;29;20056;-75
2023/07/30 15:22:39;;;;;;;4.28;1.33;;;;;;;21.33;51.16;99923.78;10147236;29;20075;-74
2023/07/30 15:27:42;;;;;;;5.78;1.13;;;;;;;20.97;51.41;99929.53;10126206;29;20517;-74
2023/07/30 15:32:46;;;;;;;3.95;1.10;;;;;;;21.35;50.19;99943.56;10119258;29;20059;-75
2023/07/30 15:37:51;;;;;;;4.03;1.20;;;;;;;21.39;49.22;99928.44;10118946;29;20420;-76
2023/07/30 15:42:54;;;;;;;2.90;0.82;;;;;;;21.49;48.86;99940.88;10115525;29;20777;-75
2023/07/30 15:47:59;;;;;;;6.07;1.50;;;;;;;20.52;50.36;99937.28;10124768;29;20055;-74
2023/07/30 15:53:02;;;;;;;1.95;1.13;;;;;;;19.63;52.07;99949.50;10120223;29;20075;-74
2023/07/30 15:58:05;;;;;;;4.43;1.23;;;;;;;19.84;52.47;99958.72;10120682;29;20068;-74
2023/07/30 16:03:10;;;;;;;4.72;1.45;;;;;;;21.14;49.65;99935.50;10106633;29;20048;-74
2023/07/30 16:08:13;;;;;;;3.80;1.33;;;;;;;21.20;49.67;99935.53;10122476;29;20062;-75
2023/07/30 16:13:15;;;;;;;5.05;1.10;;;;;;;20.49;50.44;99926.78;10125476;29;20106;-74
2023/07/30 16:18:20;;;;;;;6.18;1.25;;;;;;;20.68;49.65;99936.97;10112546;29;20100;-75
2023/07/30 16:23:22;;;;;;;3.33;1.05;;;;;;;20.78;50.21;99931.13;10120681;29;20048;-75
2023/07/30 16:28:25;;;;;;;5.30;1.42;;;;;;;20.72;51.29;99940.13;10123563;29;20063;-75
2023/07/30 16:33:30;;;;;;;2.55;1.02;;;;;;;21.04;50.30;99951.44;10123583;29;20068;-75
2023/07/30 16:38:33;;;;;;;3.72;1.30;;;;;;;20.62;50.95;99940.47;10125716;29;20524;-74
2023/07/30 16:43:36;;;;;;;4.80;1.17;;;;;;;21.48;49.60;99942.75;10122500;29;20051;-76
2023/07/30 16:48:40;;;;;;;4.00;1.10;;;;;;;20.18;51.32;99957.97;10118963;29;20060;-75
2023/07/30 16:53:43;;;;;;;2.42;0.82;;;;;;;19.16;53.72;99948.13;10106840;29;20052;-75
2023/07/30 16:58:46;;;;;;;3.60;1.08;;;;;;;19.11;53.91;99958.72;10119601;29;20066;-75
2023/07/30 17:03:50;;;;;;;3.53;0.95;;;;;;;19.36;52.93;99951.09;10118568;29;20902;-76
2023/07/30 17:08:53;;;;;;;2.08;0.85;;;;;;;19.00;54.18;99968.22;10106538;29;20048;-76
2023/07/30 17:13:56;;;;;;;7.28;1.38;;;;;;;18.70;53.93;99970.09;10111470;29;20178;-76
2023/07/30 17:19:03;;;;;;;2.20;1.02;;;;;;;19.63;52.64;99995.81;10118616;29;20529;-75
2023/07/30 17:24:06;;;;;;;1.50;0.85;;;;;;;20.10;51.07;99977.19;10103476;29;21168;-75
2023/07/30 17:29:09;;;;;;;2.97;1.35;;;;;;;20.31;51.14;99977.19;10119021;29;20163;-76
2023/07/30 17:34:14;;;;;;;3.20;1.13;;;;;;;19.80;52.09;99988.25;10113610;29;20051;-75
2023/07/30 17:39:17;;;;;;;5.45;1.80;;;;;;;18.89;54.12;99973.31;10109779;29;20620;-76
2023/07/30 17:44:20;;;;;;;4.93;1.90;;;;;;;18.96;54.88;99980.53;10111114;29;20068;-76
2023/07/30 17:49:24;;;;;;;5.45;1.75;;;;;;;18.84;55.08;99992.94;10112762;29;20057;-76
2023/07/30 17:54:27;;;;;;;4.57;1.42;;;;;;;18.43;56.11;99981.59;10119116;29;20523;-77
2023/07/30 17:59:31;;;;;;;4.85;1.33;;;;;;;18.81;55.00;99990.56;10120717;29;20061;-76
2023/07/30 18:04:35;;;;;;;1.85;1.00;;;;;;;18.26;56.16;99998.06;10107281;29;20065;-75
2023/07/30 18:09:38;;;;;;;8.18;1.90;;;;;;;18.52;56.21;99989.50;10111624;29;20146;-75
2023/07/30 18:14:40;;;;;;;6.22;2.10;;;;;;;18.42;56.52;99988.09;10103932;29;20719;-75
2023/07/30 18:19:45;;;;;;;6.20;1.88;;;;;;;18.24;56.86;100002.00;10108722;29;20044;-75
2023/07/30 18:24:47;;;;;;;3.70;1.52;;;;;;;18.57;56.41;100002.56;10116423;29;20044;-75
2023/07/30 18:29:50;;;;;;;9.40;1.73;;;;;;;18.63;56.05;99992.81;10118458;29;20414;-74
2023/07/30 18:34:55;;;;;;;4.38;1.40;;;;;;;18.21;57.15;100003.25;10120431;29;21261;-74
2023/07/30 18:39:59;;;;;;;5.10;1.50;;;;;;;18.28;57.02;100006.06;10118813;29;20427;-74
2023/07/30 18:45:02;;;;;;;7.00;1.80;;;;;;;18.13;57.11;99998.72;10121760;29;20056;-74
2023/07/30 18:50:07;;;;;;;8.00;1.75;;;;;;;18.06;57.07;100010.50;10126040;29;20059;-74
2023/07/30 18:55:10;;;;;;;6.45;2.13;;;;;;;18.08;57.21;99994.88;10124729;29;20048;-75
2023/07/30 19:00:14;;;;;;;8.43;1.90;;;;;;;18.35;56.55;99991.56;10116097;29;20047;-75
2023/07/30 19:05:19;;;;;;;6.25;1.52;;;;;;;18.23;57.14;99986.75;10115934;29;20686;-76
2023/07/30 19:10:21;;;;;;;7.10;2.08;;;;;;;18.22;57.30;99999.50;10115199;29;20579;-77
2023/07/30 19:15:24;;;;;;;6.03;1.83;;;;;;;17.99;58.02;100004.97;10115120;29;20059;-76
2023/07/30 19:20:28;;;;;;;8.40;2.03;;;;;;;;;;10118264;29;20052;-76
2023/07/30 19:25:31;;;;;;;5.32;1.70;;;;;;;18.04;58.28;99998.97;10114904;29;20044;-76
2023/07/30 19:30:38;;;;;;;5.43;1.90;;;;;;;18.10;58.36;100011.81;10114358;29;20055;-75
2023/07/30 19:35:42;;;;;;;3.72;1.42;;;;;;;18.01;58.87;99996.59;10114397;29;20048;-74
2023/07/30 19:40:54;;;;;;;4.75;1.60;;;;;;;18.02;59.30;99990.13;10118528;29;20086;-76
2023/07/30 19:45:58;;;;;;;5.35;1.33;;;;;;;17.93;59.59;99990.16;10120689;29;20060;-77
2023/07/30 19:51:03;;;;;;;4.93;2.08;;;;;;;17.67;62.71;100000.56;10116103;29;20072;-74
2023/07/30 19:56:05;;;;;;;8.27;1.95;;;;;;;17.93;61.71;99992.03;10111287;29;21739;-75
2023/07/30 20:01:11;;;;;;;7.65;1.70;;;;;;;17.89;60.63;99982.59;10114528;29;20080;-74
2023/07/30 20:06:16;;;;;;;5.25;1.80;;;;;;;17.96;60.47;99988.13;10112338;29;20073;-76
2023/07/30 20:11:20;;;;;;;5.10;1.83;;;;;;;17.97;60.24;99982.56;10110195;29;20119;-75
2023/07/30 20:16:23;;;;;;;5.18;2.17;;;;;;;17.93;60.26;99978.47;10109071;29;20444;-75
2023/07/30 20:21:28;;;;;;;4.35;2.05;;;;;;;17.70;61.22;99975.75;10107465;29;20092;-76
2023/07/30 20:26:31;;;;;;;7.53;1.80;;;;;;;17.89;60.71;99985.31;10123003;29;20048;-75
2023/07/30 20:31:36;;;;;;;7.00;1.95;;;;;;;17.78;61.19;99980.31;10122388;29;20062;-76
2023/07/30 20:36:40;;;;;;;7.30;2.33;;;;;;;17.73;61.44;99988.13;10123106;29;21181;-74
2023/07/30 20:41:43;;;;;;;5.93;2.05;;;;;;;17.51;62.30;99992.53;10115018;29;20044;-76
2023/07/30 20:46:46;;;;;;;6.65;2.42;;;;;;;17.23;62.77;99991.16;10122172;29;20055;-74
2023/07/30 20:51:51;;;;;;;6.68;1.40;;;;;;;16.86;62.37;100016.19;10116536;29;20060;-75
2023/07/30 20:56:54;;;;;;;2.75;1.38;;;;;;;16.68;65.33;100002.03;10112302;29;20670;-74
2023/07/30 21:01:57;;;;;;;3.70;1.23;;;;;;;15.54;74.61;100017.22;10111300;29;20193;-75
2023/07/30 21:07:01;;;;;;;1.63;1.20;;;;;;;14.15;85.70;100029.91;10110527;29;20090;-75
2023/07/30 21:12:05;;;;;;;4.18;2.15;;;;;;;14.06;89.03;100020.06;10117882;29;20440;-74
2023/07/30 21:17:08;;;;;;;7.95;2.47;;;;;;;14.44;88.84;100012.63;10110004;29;20528;-76
2023/07/30 21:22:13;;;;;;;4.32;2.58;;;;;;;14.43;88.54;100011.78;10120424;29;20416;-74
2023/07/30 21:27:16;;;;;;;5.07;3.42;;;;;;;14.61;87.80;100006.31;10110717;29;20540;-74
2023/07/30 21:32:19;;;;;;;8.45;3.75;;;;;;;14.66;87.01;100013.94;10118418;29;20076;-74
2023/07/30 21:37:24;;;;;;;9.18;4.57;;;;;;;15.02;85.68;100018.19;10110889;29;20059;-74
2023/07/30 21:42:28;;;;;;;9.20;5.05;;;;;;;14.88;86.25;100013.41;10115172;29;20044;-74
2023/07/30 21:47:31;;;;;;;8.20;4.10;;;;;;;14.65;86.26;100005.00;10111542;29;20149;-76
2023/07/30 21:52:37;;;;;;;7.88;4.78;;;;;;;14.75;86.04;99994.06;10108773;29;20060;-75
2023/07/30 21:57:40;;;;;;;5.50;4.05;;;;;;;14.68;86.44;99995.72;10112540;29;20151;-76
2023/07/30 22:02:43;;;;;;;7.57;4.20;;;;;;;14.64;87.25;99995.19;10109101;29;20059;-76
2023/07/30 22:07:47;;;;;;;5.25;4.50;;;;;;;14.88;85.84;99983.66;10111235;29;20048;-75
2023/07/30 22:12:50;;;;;;;5.43;3.90;;;;;;;14.76;85.91;99969.56;10114525;29;20052;-74
2023/07/30 22:17:53;;;;;;;4.47;3.03;;;;;;;14.45;88.25;99957.56;10121802;29;20059;-74
2023/07/30 22:22:58;;;;;;;6.30;4.13;;;;;;;14.79;87.43;99947.63;10131549;29;20063;-75
2023/07/30 22:28:00;;;;;;;7.93;3.70;;;;;;;14.70;88.51;99948.59;10134219;29;21219;-75
2023/07/30 22:33:12;;;;;;;6.68;3.95;;;;;;;14.74;88.36;99941.00;10126890;29;20060;-74
2023/07/30 22:38:16;;;;;;;6.25;4.10;;;;;;;14.63;89.16;99938.59;10122137;29;20510;-76
2023/07/30 22:43:19;;;;;;;9.93;4.15;;;;;;;14.69;87.95;99925.25;10118272;29;20063;-75
2023/07/30 22:48:22;;;;;;;5.55;2.65;;;;;;;14.32;89.47;99909.34;10116560;29;20047;-74
2023/07/30 22:53:26;;;;;;;6.00;3.55;;;;;;;14.62;88.25;99910.72;10117169;29;20263;-74
2023/07/30 22:58:29;;;;;;;7.13;3.55;;;;;;;14.74;88.01;99900.47;10119272;29;20056;-75
2023/07/30 23:03:33;;;;;;;7.57;4.10;;;;;;;14.63;88.56;99898.88;10112699;29;20060;-74
2023/07/30 23:08:37;;;;;;;9.88;3.95;;;;;;;14.59;88.67;99898.38;10123480;29;20048;-75
2023/07/30 23:13:40;;;;;;;6.85;3.15;;;;;;;14.79;88.11;99900.81;10110974;29;20056;-74
2023/07/30 23:18:43;;;;;;;4.60;3.38;;;;;;;14.80;87.41;99897.94;10119478;29;20079;-75